Time;durP1;ratioP1;P1;durP2;ratioP2;P2;SDS_P1;SDS_P2;PMS_P1;PMS_P2;Temp;Humidity;BMP_temperature;BMP_pressure;BME280_temperature;BME280_humidity;BME280_pressure;Samples;Min_cycle;Max_cycle;Signal;HPM_P1;HPM_P2
2022/03/15 00:00:32;;;;;;;16.95;7.53;;;;;;;;;;5030389;28;20599;-80
2022/03/15 00:02:59;;;;;;;16.92;8.73;;;;;;;;;;5017388;28;20060;-80
2022/03/15 00:05:26;;;;;;;21.80;8.02;;;;;;;;;;5034672;28;20054;-80
2022/03/15 00:07:52;;;;;;;20.92;9.30;;;;;;;;;;5034948;28;20050;-80
2022/03/15 00:10:19;;;;;;;18.08;7.85;;;;;;;;;;5032579;28;20096;-81
2022/03/15 00:12:46;;;;;;;18.08;8.25;;;;;;;;;;5036799;28;20050;-80
2022/03/15 00:15:13;;;;;;;22.10;8.43;;;;;;;;;;5018035;28;20104;-80
2022/03/15 00:17:41;;;;;;;15.98;8.57;;;;;;;;;;5031464;28;20073;-81
2022/03/15 00:20:10;;;;;;;19.75;8.20;;;;;;;;;;5032459;28;20038;-81
2022/03/15 00:22:36;;;;;;;14.40;6.45;;;;;;;;;;5011163;28;20042;-80
2022/03/15 00:25:08;;;;;;;16.77;6.65;;;;;;;;;;5034677;28;20207;-80
2022/03/15 00:27:35;;;;;;;18.02;7.50;;;;;;;;;;5017565;28;20065;-80
2022/03/15 00:30:03;;;;;;;15.30;7.65;;;;;;;;;;5035074;28;20513;-80
2022/03/15 00:32:30;;;;;;;14.65;6.50;;;;;;;;;;5034859;28;20209;-82
2022/03/15 00:34:56;;;;;;;18.92;7.50;;;;;;;;;;5018816;28;20527;-80
2022/03/15 00:37:22;;;;;;;14.75;7.32;;;;;;;;;;5018117;28;20105;-80
2022/03/15 00:39:49;;;;;;;16.17;7.00;;;;;;;;;;5020708;28;20097;-82
2022/03/15 00:42:16;;;;;;;15.45;7.55;;;;;;;;;;5038080;28;20070;-84
2022/03/15 00:44:42;;;;;;;17.73;7.78;;;;;;;;;;5037166;28;20086;-79
2022/03/15 00:47:10;;;;;;;18.45;8.25;;;;;;;;;;5020352;28;20053;-81
2022/03/15 00:49:36;;;;;;;14.70;6.88;;;;;;;;;;5017827;28;20054;-80
2022/03/15 00:52:03;;;;;;;14.43;7.13;;;;;;;;;;5033630;28;20042;-80
2022/03/15 00:54:29;;;;;;;16.13;7.25;;;;;;;;;;5037116;28;20046;-80
2022/03/15 00:56:56;;;;;;;13.10;6.85;;;;;;;;;;5038732;28;20049;-80
2022/03/15 00:59:23;;;;;;;17.98;7.03;;;;;;;;;;5012954;28;20038;-80
2022/03/15 01:01:50;;;;;;;16.10;7.60;;;;;;;;;;5028971;28;20520;-80
2022/03/15 01:04:17;;;;;;;16.88;6.80;;;;;;;;;;5037026;28;20077;-80
2022/03/15 01:06:43;;;;;;;13.55;6.80;;;;;;;;;;5034341;28;20057;-80
2022/03/15 01:09:09;;;;;;;16.83;7.90;;;;;;;;;;5033407;28;20105;-80
2022/03/15 01:11:36;;;;;;;12.95;6.90;;;;;;;;;;5037050;28;20046;-80
2022/03/15 01:14:03;;;;;;;16.85;7.78;;;;;;;;;;5018794;28;20598;-80
2022/03/15 01:16:29;;;;;;;15.18;7.75;;;;;;;;;;5019987;28;20058;-81
2022/03/15 01:18:56;;;;;;;17.00;8.07;;;;;;;;;;5019068;28;20041;-80
2022/03/15 01:21:23;;;;;;;17.88;7.80;;;;;;;;;;5038047;28;20046;-80
2022/03/15 01:23:49;;;;;;;16.20;7.82;;;;;;;;;;5019873;28;20096;-82
2022/03/15 01:26:16;;;;;;;15.98;7.35;;;;;;;;;;5036699;28;20464;-80
2022/03/15 01:28:42;;;;;;;16.50;6.90;;;;;;;;;;5037390;28;20523;-80
2022/03/15 01:31:11;;;;;;;20.73;7.80;;;;;;;;;;5036650;28;20575;-82
2022/03/15 01:33:38;;;;;;;18.48;8.15;;;;;;;;;;5019910;28;20053;-80
2022/03/15 01:36:05;;;;;;;18.20;8.05;;;;;;;;;;5036384;28;20123;-80
2022/03/15 01:38:34;;;;;;;17.88;8.07;;;;;;;;;;5035795;28;20817;-80
2022/03/15 01:41:00;;;;;;;14.90;7.68;;;;;;;;;;5036116;28;20724;-82
2022/03/15 01:43:26;;;;;;;17.27;6.75;;;;;;;;;;5041077;28;20077;-82
2022/03/15 01:45:53;;;;;;;13.88;7.07;;;;;;;;;;5037912;28;20106;-83
2022/03/15 01:48:20;;;;;;;16.52;7.05;;;;;;;;;;5038840;28;20069;-80
2022/03/15 01:50:47;;;;;;;16.52;6.72;;;;;;;;;;5039440;28;20060;-80
2022/03/15 01:53:14;;;;;;;17.00;8.13;;;;;;;;;;5037111;28;20045;-80
2022/03/15 01:55:40;;;;;;;16.00;8.32;;;;;;;;;;5021509;28;20070;-81
2022/03/15 01:58:07;;;;;;;17.70;7.95;;;;;;;;;;5033807;28;20804;-82
2022/03/15 02:00:34;;;;;;;13.93;7.10;;;;;;;;;;5034444;28;20128;-80
2022/03/15 02:03:01;;;;;;;15.77;6.68;;;;;;;;;;5034937;28;20050;-80
2022/03/15 02:05:29;;;;;;;13.55;6.30;;;;;;;;;;5032525;28;20050;-80
2022/03/15 02:07:56;;;;;;;18.65;7.20;;;;;;;;;;5012721;28;20116;-82
2022/03/15 02:10:23;;;;;;;15.90;7.55;;;;;;;;;;5033050;28;20104;-80
2022/03/15 02:12:50;;;;;;;16.20;7.15;;;;;;;;;;5034312;28;20057;-80
2022/03/15 02:15:16;;;;;;;15.38;7.15;;;;;;;;;;5018945;28;20050;-82
2022/03/15 02:17:42;;;;;;;15.15;6.88;;;;;;;;;;5035429;28;20205;-81
2022/03/15 02:20:09;;;;;;;19.58;6.97;;;;;;;;;;5043698;28;20050;-80
2022/03/15 02:22:36;;;;;;;16.65;7.50;;;;;;;;;;5042247;28;20057;-83
2022/03/15 02:25:02;;;;;;;14.10;7.30;;;;;;;;;;5035650;28;20666;-80
2022/03/15 02:27:29;;;;;;;18.40;6.78;;;;;;;;;;5025150;28;20045;-83
2022/03/15 02:29:55;;;;;;;16.02;7.32;;;;;;;;;;5044253;28;20140;-85
2022/03/15 02:32:22;;;;;;;16.63;6.78;;;;;;;;;;5025839;28;20077;-83
2022/03/15 02:34:51;;;;;;;15.43;7.32;;;;;;;;;;5043476;28;20092;-80
2022/03/15 02:37:17;;;;;;;16.33;6.95;;;;;;;;;;5041650;28;20038;-83
2022/03/15 02:39:43;;;;;;;17.45;6.75;;;;;;;;;;5037051;28;20081;-84
2022/03/15 02:42:10;;;;;;;15.23;6.78;;;;;;;;;;5026915;28;20045;-82
2022/03/15 02:44:36;;;;;;;15.30;6.43;;;;;;;;;;5018292;28;20836;-82
2022/03/15 02:47:04;;;;;;;11.35;6.55;;;;;;;;;;5026991;28;20050;-84
2022/03/15 02:49:30;;;;;;;15.27;6.82;;;;;;;;;;5018466;28;20890;-81
2022/03/15 02:51:57;;;;;;;13.75;6.82;;;;;;;;;;5044288;28;20058;-81
2022/03/15 02:54:23;;;;;;;14.20;6.60;;;;;;;;;;5033425;28;20038;-81
2022/03/15 02:56:50;;;;;;;15.82;6.85;;;;;;;;;;5043266;28;20054;-82
2022/03/15 02:59:17;;;;;;;15.50;7.38;;;;;;;;;;5044197;28;20045;-82
2022/03/15 03:01:44;;;;;;;17.65;7.70;;;;;;;;;;5035208;28;20045;-82
2022/03/15 03:04:12;;;;;;;16.95;7.18;;;;;;;;;;5042708;28;20038;-82
2022/03/15 03:06:41;;;;;;;24.70;7.78;;;;;;;;;;5008615;28;20038;-81
2022/03/15 03:09:08;;;;;;;16.98;7.47;;;;;;;;;;5043601;28;20076;-81
2022/03/15 03:11:34;;;;;;;12.32;6.82;;;;;;;;;;5025858;28;20834;-81
2022/03/15 03:14:01;;;;;;;14.40;6.68;;;;;;;;;;5043284;28;20046;-81
2022/03/15 03:16:29;;;;;;;15.23;7.00;;;;;;;;;;5042668;28;20049;-83
2022/03/15 03:18:58;;;;;;;15.70;7.57;;;;;;;;;;5024103;28;20046;-83
2022/03/15 03:21:26;;;;;;;15.35;6.95;;;;;;;;;;5043597;28;20042;-83
2022/03/15 03:23:53;;;;;;;17.05;7.10;;;;;;;;;;5039605;28;20034;-83
2022/03/15 03:26:21;;;;;;;17.13;6.50;;;;;;;;;;5011886;28;20050;-81
2022/03/15 03:28:47;;;;;;;15.85;6.95;;;;;;;;;;5018878;28;20070;-81
2022/03/15 03:31:15;;;;;;;17.08;7.07;;;;;;;;;;5017053;28;20077;-84
2022/03/15 03:33:42;;;;;;;14.68;6.53;;;;;;;;;;5025547;28;20060;-83
2022/03/15 03:36:09;;;;;;;17.55;6.68;;;;;;;;;;5023461;28;20057;-83
2022/03/15 03:38:36;;;;;;;21.85;7.85;;;;;;;;;;5018336;28;20042;-81
2022/03/15 03:41:04;;;;;;;15.60;6.93;;;;;;;;;;5034106;28;20915;-81
2022/03/15 03:43:31;;;;;;;15.40;6.63;;;;;;;;;;5021631;28;20057;-78
2022/03/15 03:45:58;;;;;;;14.52;7.13;;;;;;;;;;5025331;28;20077;-78
2022/03/15 03:48:25;;;;;;;15.52;7.03;;;;;;;;;;5015005;28;20104;-83
2022/03/15 03:50:51;;;;;;;17.23;7.43;;;;;;;;;;5025897;28;20112;-82
2022/03/15 03:53:18;;;;;;;14.60;6.65;;;;;;;;;;5023397;28;20093;-82
2022/03/15 03:55:44;;;;;;;16.88;6.78;;;;;;;;;;5035851;28;20054;-81
2022/03/15 03:58:11;;;;;;;14.60;7.43;;;;;;;;;;5035930;28;20065;-83
2022/03/15 04:00:38;;;;;;;13.30;6.93;;;;;;;;;;5024266;28;20934;-82
2022/03/15 04:03:05;;;;;;;14.63;7.10;;;;;;;;;;5036067;28;20052;-84
2022/03/15 04:05:33;;;;;;;13.07;6.70;;;;;;;;;;5040728;28;20046;-81
2022/03/15 04:07:59;;;;;;;16.92;7.35;;;;;;;;;;5023779;28;20057;-81
2022/03/15 04:10:32;;;;;;;16.52;7.70;;;;;;;;;;5026076;28;20073;-82
2022/03/15 04:12:58;;;;;;;16.23;7.97;;;;;;;;;;5024275;28;20042;-83
2022/03/15 04:15:25;;;;;;;13.90;7.47;;;;;;;;;;5016510;28;20089;-82
2022/03/15 04:17:52;;;;;;;18.83;7.53;;;;;;;;;;5042534;28;20041;-84
2022/03/15 04:20:19;;;;;;;17.05;7.60;;;;;;;;;;5043713;28;20046;-84
2022/03/15 04:22:45;;;;;;;19.08;8.38;;;;;;;;;;5023777;28;20050;-82
2022/03/15 04:25:11;;;;;;;18.05;7.25;;;;;;;;;;5025017;28;20058;-83
2022/03/15 04:27:38;;;;;;;20.23;8.70;;;;;;;;;;5025888;28;20105;-83
2022/03/15 04:30:05;;;;;;;16.65;7.93;;;;;;;;;;5023286;28;20042;-81
2022/03/15 04:32:35;;;;;;;15.02;7.90;;;;;;;;;;5038137;28;20057;-83
2022/03/15 04:35:02;;;;;;;18.58;8.55;;;;;;;;;;5040224;28;20078;-83
2022/03/15 04:37:28;;;;;;;15.65;8.30;;;;;;;;;;5039849;28;20073;-80
2022/03/15 04:39:58;;;;;;;18.92;8.85;;;;;;;;;;5022855;28;20052;-80
2022/03/15 04:42:25;;;;;;;25.05;9.43;;;;;;;;;;5041122;28;20046;-81
2022/03/15 04:44:51;;;;;;;17.90;9.38;;;;;;;;;;5021557;28;20848;-84
2022/03/15 04:47:19;;;;;;;18.55;9.10;;;;;;;;;;5041129;28;20109;-82
2022/03/15 04:49:45;;;;;;;17.55;7.75;;;;;;;;;;5041368;28;20105;-82
2022/03/15 04:52:13;;;;;;;15.65;8.18;;;;;;;;;;5026262;28;20046;-84
2022/03/15 04:54:39;;;;;;;14.07;7.00;;;;;;;;;;5039362;28;20046;-81
2022/03/15 04:57:05;;;;;;;14.63;8.10;;;;;;;;;;5019780;28;20042;-84
2022/03/15 04:59:32;;;;;;;13.60;7.00;;;;;;;;;;5042269;28;20053;-80
2022/03/15 05:01:58;;;;;;;18.85;7.15;;;;;;;;;;5039672;28;20229;-83
2022/03/15 05:04:25;;;;;;;22.45;7.47;;;;;;;;;;5038907;28;20523;-83
2022/03/15 05:06:51;;;;;;;21.27;8.32;;;;;;;;;;5022893;28;20101;-83
2022/03/15 05:09:18;;;;;;;21.92;7.90;;;;;;;;;;5042162;28;20065;-81
2022/03/15 05:11:46;;;;;;;18.67;7.53;;;;;;;;;;5041776;28;20057;-83
2022/03/15 05:14:13;;;;;;;20.40;8.13;;;;;;;;;;5027302;28;20058;-81
2022/03/15 05:16:39;;;;;;;20.83;8.77;;;;;;;;;;5026385;28;20038;-83
2022/03/15 05:19:06;;;;;;;22.80;9.68;;;;;;;;;;5028608;28;20053;-85
2022/03/15 05:21:32;;;;;;;22.77;10.20;;;;;;;;;;5047091;28;20054;-81
2022/03/15 05:23:58;;;;;;;24.52;10.65;;;;;;;;;;5029079;28;20054;-83
2022/03/15 05:26:25;;;;;;;24.45;11.23;;;;;;;;;;5027919;28;20050;-82
2022/03/15 05:28:51;;;;;;;31.73;12.25;;;;;;;;;;5028302;28;20057;-83
2022/03/15 05:31:22;;;;;;;31.00;12.93;;;;;;;;;;5046750;28;20057;-82
2022/03/15 05:33:49;;;;;;;25.33;12.60;;;;;;;;;;5024116;28;20061;-85
2022/03/15 05:36:15;;;;;;;30.08;12.63;;;;;;;;;;5046080;28;20881;-85
2022/03/15 05:38:41;;;;;;;29.58;13.75;;;;;;;;;;5033285;28;20054;-84
2022/03/15 05:41:08;;;;;;;30.98;14.23;;;;;;;;;;5042793;28;20119;-83
2022/03/15 05:43:52;;;;;;;30.65;13.68;;;;;;;;;;5019458;28;20045;-83
2022/03/15 05:46:24;;;;;;;32.25;12.98;;;;;;;;;;5026376;28;20042;-81
2022/03/15 05:48:52;;;;;;;25.98;12.25;;;;;;;;;;5020809;28;20054;-83
2022/03/15 05:51:19;;;;;;;30.63;13.38;;;;;;;;;;5045890;28;20038;-83
2022/03/15 05:53:45;;;;;;;24.60;12.55;;;;;;;;;;5044895;28;20069;-83
2022/03/15 05:56:11;;;;;;;26.92;13.13;;;;;;;;;;5045471;28;20146;-84
2022/03/15 05:58:43;;;;;;;33.08;13.63;;;;;;;;;;5029548;28;20092;-82
2022/03/15 06:01:10;;;;;;;27.42;13.70;;;;;;;;;;5046060;28;20054;-83
2022/03/15 06:03:36;;;;;;;34.15;14.25;;;;;;;;;;5046042;28;20046;-84
2022/03/15 06:06:03;;;;;;;33.95;14.80;;;;;;;;;;5026214;28;20104;-81
2022/03/15 06:08:30;;;;;;;27.27;13.50;;;;;;;;;;5047266;28;20046;-84
2022/03/15 06:11:00;;;;;;;31.27;13.77;;;;;;;;;;5046088;28;20041;-81
2022/03/15 06:13:27;;;;;;;30.33;14.07;;;;;;;;;;5028207;28;20058;-84
2022/03/15 06:15:53;;;;;;;31.35;14.52;;;;;;;;;;5047930;28;20033;-83
2022/03/15 06:18:19;;;;;;;30.30;13.60;;;;;;;;;;5043529;28;20042;-83
2022/03/15 06:20:46;;;;;;;28.85;13.82;;;;;;;;;;5045167;28;20050;-83
2022/03/15 06:23:13;;;;;;;31.25;13.48;;;;;;;;;;5019669;28;20061;-82
2022/03/15 06:25:39;;;;;;;25.65;13.80;;;;;;;;;;5045180;28;20073;-84
2022/03/15 06:28:05;;;;;;;24.98;13.13;;;;;;;;;;5020149;28;20050;-83
2022/03/15 06:30:32;;;;;;;32.08;14.40;;;;;;;;;;5019153;28;20037;-82
2022/03/15 06:32:59;;;;;;;33.28;14.13;;;;;;;;;;5026129;28;20086;-82
2022/03/15 06:35:28;;;;;;;37.47;15.02;;;;;;;;;;5036580;28;20079;-83
2022/03/15 06:37:56;;;;;;;30.02;14.55;;;;;;;;;;5019514;28;20050;-82
2022/03/15 06:40:25;;;;;;;35.45;15.18;;;;;;;;;;5044926;28;20076;-83
2022/03/15 06:42:52;;;;;;;40.67;16.45;;;;;;;;;;5017744;28;20050;-85
2022/03/15 06:45:19;;;;;;;36.72;15.35;;;;;;;;;;5044369;28;20045;-84
2022/03/15 06:47:45;;;;;;;32.22;15.80;;;;;;;;;;5040173;28;20054;-81
2022/03/15 06:50:12;;;;;;;27.58;14.52;;;;;;;;;;5044123;28;20097;-84
2022/03/15 06:52:40;;;;;;;29.83;15.48;;;;;;;;;;5026494;28;20049;-83
2022/03/15 06:55:07;;;;;;;36.20;15.35;;;;;;;;;;5027537;28;20054;-85
2022/03/15 06:57:34;;;;;;;30.92;15.43;;;;;;;;;;5022781;28;20528;-82
2022/03/15 07:00:04;;;;;;;33.22;15.68;;;;;;;;;;5043170;28;20074;-84
2022/03/15 07:02:30;;;;;;;34.78;14.85;;;;;;;;;;5034796;28;20057;-79
2022/03/15 07:04:57;;;;;;;34.03;14.65;;;;;;;;;;5034490;28;20054;-83
2022/03/15 07:07:23;;;;;;;29.73;14.95;;;;;;;;;;5021294;28;20073;-83
2022/03/15 07:09:49;;;;;;;30.83;16.00;;;;;;;;;;5027555;28;20058;-83
2022/03/15 07:12:16;;;;;;;27.67;14.77;;;;;;;;;;5038793;28;20042;-85
2022/03/15 07:14:43;;;;;;;30.35;15.07;;;;;;;;;;5024447;28;20085;-81
2022/03/15 07:17:09;;;;;;;27.58;14.70;;;;;;;;;;5007911;28;20060;-84
2022/03/15 07:19:36;;;;;;;29.38;16.27;;;;;;;;;;5026314;28;20050;-83
2022/03/15 07:22:03;;;;;;;34.38;16.27;;;;;;;;;;5041292;28;20065;-79
2022/03/15 07:24:29;;;;;;;28.77;15.05;;;;;;;;;;5025543;28;20202;-83
2022/03/15 07:26:56;;;;;;;31.73;15.65;;;;;;;;;;5039483;28;20128;-83
2022/03/15 07:29:23;;;;;;;33.20;16.10;;;;;;;;;;5034951;28;20073;-81
2022/03/15 07:31:50;;;;;;;29.88;15.23;;;;;;;;;;5044199;28;20046;-82
2022/03/15 07:34:17;;;;;;;29.33;15.32;;;;;;;;;;5043924;28;20110;-83
2022/03/15 07:36:43;;;;;;;26.98;14.57;;;;;;;;;;5026279;28;20046;-81
2022/03/15 07:39:10;;;;;;;28.30;14.82;;;;;;;;;;5028865;28;20046;-81
2022/03/15 07:41:38;;;;;;;27.30;14.45;;;;;;;;;;5039415;28;20058;-82
2022/03/15 07:44:08;;;;;;;30.50;15.18;;;;;;;;;;5029968;28;20092;-84
2022/03/15 07:46:36;;;;;;;28.58;14.43;;;;;;;;;;5044363;28;20050;-85
2022/03/15 07:49:03;;;;;;;24.92;12.32;;;;;;;;;;5021099;28;20061;-85
2022/03/15 07:51:30;;;;;;;25.85;12.30;;;;;;;;;;5022938;28;20065;-81
2022/03/15 07:53:56;;;;;;;26.45;12.85;;;;;;;;;;5047588;28;20049;-83
2022/03/15 07:56:23;;;;;;;23.55;12.32;;;;;;;;;;5040626;28;20108;-81
2022/03/15 07:58:49;;;;;;;25.85;13.95;;;;;;;;;;5025745;28;20050;-84
2022/03/15 08:01:15;;;;;;;23.45;13.25;;;;;;;;;;5040131;28;20811;-82
2022/03/15 08:03:42;;;;;;;26.15;13.20;;;;;;;;;;5041644;28;20044;-80
2022/03/15 08:06:08;;;;;;;25.77;13.88;;;;;;;;;;5040711;28;20050;-82
2022/03/15 08:08:35;;;;;;;31.60;14.38;;;;;;;;;;5039133;28;20057;-81
2022/03/15 08:11:06;;;;;;;24.17;13.70;;;;;;;;;;5036508;28;20139;-83
2022/03/15 08:13:34;;;;;;;28.77;13.73;;;;;;;;;;5034149;28;20061;-80
2022/03/15 08:16:04;;;;;;;24.67;13.13;;;;;;;;;;5038341;28;20080;-81
2022/03/15 08:18:30;;;;;;;25.98;14.00;;;;;;;;;;5037194;28;20041;-82
2022/03/15 08:20:58;;;;;;;26.15;14.15;;;;;;;;;;5042427;28;20050;-81
2022/03/15 08:23:26;;;;;;;26.95;14.25;;;;;;;;;;5010102;28;20058;-83
2022/03/15 08:25:55;;;;;;;26.30;13.40;;;;;;;;;;5018773;28;20085;-82
2022/03/15 08:28:24;;;;;;;27.63;14.15;;;;;;;;;;5019884;28;20116;-82
2022/03/15 08:30:51;;;;;;;21.00;12.65;;;;;;;;;;5016473;28;20505;-82
2022/03/15 08:33:18;;;;;;;29.95;15.27;;;;;;;;;;5032888;28;20050;-81
2022/03/15 08:35:44;;;;;;;26.05;13.90;;;;;;;;;;5022811;28;20057;-82
2022/03/15 08:38:11;;;;;;;22.75;12.55;;;;;;;;;;5041027;28;20058;-82
2022/03/15 08:40:38;;;;;;;25.00;12.93;;;;;;;;;;5018414;28;20121;-82
2022/03/15 08:43:04;;;;;;;27.23;13.13;;;;;;;;;;5031795;28;20034;-82
2022/03/15 08:45:31;;;;;;;26.38;12.27;;;;;;;;;;5040165;28;20042;-81
2022/03/15 08:47:57;;;;;;;24.83;12.65;;;;;;;;;;5016825;28;20081;-82
2022/03/15 08:50:24;;;;;;;23.77;12.40;;;;;;;;;;5022810;28;20069;-85
2022/03/15 08:52:50;;;;;;;22.85;11.75;;;;;;;;;;5021184;28;20046;-84
2022/03/15 08:55:16;;;;;;;24.88;12.50;;;;;;;;;;5021175;28;20039;-83
2022/03/15 08:57:43;;;;;;;20.38;11.38;;;;;;;;;;5036896;28;20501;-82
2022/03/15 09:00:10;;;;;;;24.00;12.60;;;;;;;;;;5026742;28;20108;-83
2022/03/15 09:02:36;;;;;;;28.35;11.98;;;;;;;;;;5044261;28;20034;-85
2022/03/15 09:05:03;;;;;;;19.98;11.27;;;;;;;;;;5016748;28;20089;-83
2022/03/15 09:07:32;;;;;;;25.65;11.85;;;;;;;;;;5025021;28;20080;-84
2022/03/15 09:09:59;;;;;;;23.42;11.00;;;;;;;;;;5043439;28;20073;-84
2022/03/15 09:12:25;;;;;;;18.48;10.80;;;;;;;;;;5028216;28;20029;-84
2022/03/15 09:14:53;;;;;;;22.60;11.25;;;;;;;;;;5025369;28;20054;-84
2022/03/15 09:17:20;;;;;;;23.83;11.25;;;;;;;;;;5026202;28;20054;-82
2022/03/15 09:19:46;;;;;;;22.67;10.43;;;;;;;;;;5041405;28;20078;-83
2022/03/15 09:22:14;;;;;;;21.27;10.43;;;;;;;;;;5025233;28;20046;-82
2022/03/15 09:24:41;;;;;;;20.25;10.65;;;;;;;;;;5029860;28;20046;-82
2022/03/15 09:27:08;;;;;;;20.15;10.95;;;;;;;;;;5035387;28;20046;-83
2022/03/15 09:29:36;;;;;;;21.55;10.48;;;;;;;;;;5041163;28;20077;-83
2022/03/15 09:32:04;;;;;;;23.30;10.45;;;;;;;;;;5022214;28;20109;-82
2022/03/15 09:34:30;;;;;;;17.88;9.43;;;;;;;;;;5022248;28;21010;-84
2022/03/15 09:36:59;;;;;;;19.80;10.48;;;;;;;;;;5023770;28;20042;-84
2022/03/15 09:39:25;;;;;;;19.50;9.82;;;;;;;;;;5035479;28;20879;-82
2022/03/15 09:41:53;;;;;;;21.95;10.55;;;;;;;;;;5039646;28;20138;-85
2022/03/15 09:44:20;;;;;;;14.50;8.70;;;;;;;;;;5025589;28;20506;-82
2022/03/15 09:46:50;;;;;;;28.52;8.90;;;;;;;;;;5019499;28;20923;-86
2022/03/15 09:49:24;;;;;;;20.33;8.45;;;;;;;;;;5033818;28;20034;-82
2022/03/15 09:51:53;;;;;;;19.20;8.85;;;;;;;;;;5026275;28;20051;-84
2022/03/15 09:54:20;;;;;;;15.52;8.02;;;;;;;;;;5030696;28;20042;-83
2022/03/15 09:56:47;;;;;;;23.17;8.23;;;;;;;;;;5038706;28;20058;-82
2022/03/15 09:59:16;;;;;;;15.95;8.57;;;;;;;;;;5039346;28;20054;-85
2022/03/15 10:01:43;;;;;;;16.30;7.72;;;;;;;;;;5031048;28;20895;-83
2022/03/15 10:04:10;;;;;;;19.98;8.82;;;;;;;;;;5022235;28;20042;-83
2022/03/15 10:06:37;;;;;;;23.85;7.72;;;;;;;;;;5042586;28;20058;-83
2022/03/15 10:09:07;;;;;;;16.30;8.15;;;;;;;;;;5040672;28;20045;-84
2022/03/15 10:11:33;;;;;;;14.70;8.18;;;;;;;;;;5038915;28;20570;-82
2022/03/15 10:14:00;;;;;;;16.15;7.47;;;;;;;;;;5017293;28;20619;-86
2022/03/15 10:16:31;;;;;;;15.00;7.25;;;;;;;;;;5025743;28;20042;-82
2022/03/15 10:18:58;;;;;;;15.65;7.40;;;;;;;;;;5025293;28;20138;-81
2022/03/15 10:21:44;;;;;;;16.80;8.32;;;;;;;;;;5022912;28;20785;-84
2022/03/15 10:24:13;;;;;;;16.05;7.78;;;;;;;;;;5038410;28;20981;-84
2022/03/15 10:26:39;;;;;;;14.95;7.55;;;;;;;;;;5038491;28;20061;-83
2022/03/15 10:29:06;;;;;;;13.52;7.93;;;;;;;;;;5036592;28;20038;-82
2022/03/15 10:31:34;;;;;;;13.90;8.00;;;;;;;;;;5029898;28;20052;-85
2022/03/15 10:34:03;;;;;;;17.58;8.73;;;;;;;;;;5022291;28;20568;-81
2022/03/15 10:36:43;;;;;;;17.30;8.30;;;;;;;;;;5039541;28;20105;-81
2022/03/15 10:39:11;;;;;;;16.27;8.27;;;;;;;;;;5011776;28;20104;-81
2022/03/15 10:41:41;;;;;;;17.60;8.18;;;;;;;;;;5035674;28;20501;-82
2022/03/15 10:44:45;;;;;;;14.45;8.68;;;;;;;;;;5016589;28;20042;-84
2022/03/15 10:47:13;;;;;;;15.20;8.52;;;;;;;;;;4957647;28;20558;-82
2022/03/15 10:49:56;;;;;;;18.00;8.63;;;;;;;;;;5020000;28;20056;-83
2022/03/15 10:52:42;;;;;;;17.17;8.23;;;;;;;;;;5039688;28;20066;-83
2022/03/15 10:55:17;;;;;;;14.68;8.00;;;;;;;;;;5021543;28;20112;-83
2022/03/15 10:57:50;;;;;;;15.25;8.40;;;;;;;;;;5037298;28;20069;-83
2022/03/15 11:00:18;;;;;;;17.77;8.32;;;;;;;;;;5040585;28;20060;-84
2022/03/15 11:02:45;;;;;;;14.48;8.02;;;;;;;;;;5042625;28;20030;-83
2022/03/15 11:05:11;;;;;;;15.25;8.07;;;;;;;;;;5023866;28;21027;-83
2022/03/15 11:07:41;;;;;;;16.60;7.80;;;;;;;;;;5018764;28;20048;-83
2022/03/15 11:10:12;;;;;;;17.70;8.20;;;;;;;;;;5036144;28;20042;-83
2022/03/15 11:12:52;;;;;;;22.42;8.57;;;;;;;;;;5021264;28;20946;-81
2022/03/15 11:15:19;;;;;;;15.45;8.65;;;;;;;;;;5017847;28;20077;-83
2022/03/15 11:17:46;;;;;;;14.20;8.10;;;;;;;;;;5018746;28;20061;-83
2022/03/15 11:20:15;;;;;;;17.85;8.50;;;;;;;;;;5021038;28;20046;-83
2022/03/15 11:22:43;;;;;;;20.40;7.72;;;;;;;;;;5020654;28;20077;-84
2022/03/15 11:25:15;;;;;;;14.73;7.85;;;;;;;;;;5021223;28;20038;-83
2022/03/15 11:27:42;;;;;;;16.33;7.40;;;;;;;;;;5027363;28;20084;-84
2022/03/15 11:30:10;;;;;;;14.40;7.05;;;;;;;;;;5023993;28;20053;-84
2022/03/15 11:32:37;;;;;;;15.25;7.45;;;;;;;;;;5037008;28;20070;-83
2022/03/15 11:35:04;;;;;;;20.95;6.85;;;;;;;;;;5022562;28;20085;-84
2022/03/15 11:37:31;;;;;;;18.08;7.43;;;;;;;;;;5024846;28;20867;-84
2022/03/15 11:40:03;;;;;;;14.20;7.15;;;;;;;;;;5024290;28;20046;-84
2022/03/15 11:42:31;;;;;;;13.05;7.57;;;;;;;;;;5012865;28;20112;-85
2022/03/15 11:45:19;;;;;;;15.57;7.38;;;;;;;;;;5019709;28;20108;-85
2022/03/15 11:48:09;;;;;;;14.20;7.40;;;;;;;;;;5022157;28;20062;-86
2022/03/15 11:50:42;;;;;;;14.00;7.00;;;;;;;;;;5019876;28;20061;-85
2022/03/15 11:53:32;;;;;;;11.63;6.47;;;;;;;;;;5013429;28;20042;-85
2022/03/15 11:56:01;;;;;;;15.18;6.95;;;;;;;;;;5036640;28;20042;-84
2022/03/15 11:58:28;;;;;;;12.75;6.70;;;;;;;;;;5020331;28;20069;-85
2022/03/15 12:00:57;;;;;;;16.50;6.93;;;;;;;;;;5019518;28;20100;-84
2022/03/15 12:03:24;;;;;;;14.32;6.60;;;;;;;;;;5016019;28;20512;-84
2022/03/15 12:05:52;;;;;;;14.05;6.35;;;;;;;;;;5028668;28;20049;-83
2022/03/15 12:08:20;;;;;;;20.75;6.97;;;;;;;;;;5033536;28;20046;-85
2022/03/15 12:10:49;;;;;;;17.48;6.90;;;;;;;;;;5018315;28;20054;-84
2022/03/15 12:13:32;;;;;;;14.50;6.50;;;;;;;;;;5031033;28;20087;-84
2022/03/15 12:16:11;;;;;;;13.57;6.55;;;;;;;;;;5005658;28;20061;-85
2022/03/15 12:18:45;;;;;;;15.05;6.70;;;;;;;;;;5014560;28;20050;-86
2022/03/15 12:21:12;;;;;;;11.60;5.93;;;;;;;;;;5014145;28;20054;-85
2022/03/15 12:23:42;;;;;;;13.85;5.88;;;;;;;;;;5015351;28;20065;-84
2022/03/15 12:26:20;;;;;;;13.45;5.22;;;;;;;;;;5014983;28;20054;-84
2022/03/15 12:29:02;;;;;;;9.60;5.70;;;;;;;;;;5011472;28;20502;-84
2022/03/15 12:31:55;;;;;;;9.43;4.93;;;;;;;;;;5016263;28;20045;-84
2022/03/15 12:34:24;;;;;;;13.98;5.28;;;;;;;;;;5014095;28;20120;-86
2022/03/15 12:36:58;;;;;;;12.07;5.25;;;;;;;;;;5004284;28;20056;-84
2022/03/15 12:39:26;;;;;;;8.38;4.25;;;;;;;;;;5016132;28;20253;-84
2022/03/15 12:42:13;;;;;;;10.10;4.53;;;;;;;;;;5017118;28;20133;-85
2022/03/15 12:44:45;;;;;;;10.10;4.53;;;;;;;;;;5009987;28;20061;-84
2022/03/15 12:47:15;;;;;;;8.93;5.07;;;;;;;;;;5022566;28;20054;-83
2022/03/15 12:50:00;;;;;;;8.93;4.90;;;;;;;;;;5020135;28;20485;-85
2022/03/15 12:52:35;;;;;;;10.50;4.75;;;;;;;;;;5037424;28;20057;-84
2022/03/15 12:55:02;;;;;;;9.50;4.63;;;;;;;;;;5020443;28;21317;-85
2022/03/15 12:57:29;;;;;;;10.88;4.20;;;;;;;;;;5020547;28;20057;-86
2022/03/15 12:59:56;;;;;;;8.88;3.15;;;;;;;;;;5037296;28;20587;-84
2022/03/15 13:02:22;;;;;;;7.32;3.40;;;;;;;;;;5018964;28;20124;-86
2022/03/15 13:04:49;;;;;;;8.80;3.25;;;;;;;;;;5036453;28;20049;-85
2022/03/15 13:07:25;;;;;;;8.23;2.90;;;;;;;;;;5037517;28;20053;-85
2022/03/15 13:09:57;;;;;;;14.38;4.15;;;;;;;;;;5037356;28;20062;-84
2022/03/15 13:12:27;;;;;;;10.48;3.53;;;;;;;;;;5019096;28;20050;-84
2022/03/15 13:14:55;;;;;;;7.28;3.08;;;;;;;;;;5037356;28;20052;-85
2022/03/15 13:17:22;;;;;;;8.75;3.83;;;;;;;;;;5036643;28;20062;-85
2022/03/15 13:19:48;;;;;;;8.95;4.18;;;;;;;;;;5014411;28;20548;-84
2022/03/15 13:22:25;;;;;;;14.85;4.15;;;;;;;;;;5037377;28;20104;-84
2022/03/15 13:24:51;;;;;;;11.30;4.00;;;;;;;;;;5037401;28;20049;-84
2022/03/15 13:27:17;;;;;;;9.35;4.95;;;;;;;;;;5019488;28;20088;-85
2022/03/15 13:29:47;;;;;;;11.03;4.57;;;;;;;;;;5034924;28;20085;-84
2022/03/15 13:32:20;;;;;;;10.55;4.72;;;;;;;;;;5038956;28;20908;-84
2022/03/15 13:34:53;;;;;;;9.98;4.35;;;;;;;;;;5020166;28;20092;-85
2022/03/15 13:37:20;;;;;;;12.70;4.03;;;;;;;;;;5015069;28;20112;-84
2022/03/15 13:39:46;;;;;;;8.75;4.60;;;;;;;;;;5032249;28;20104;-85
2022/03/15 13:42:15;;;;;;;12.65;4.75;;;;;;;;;;5015796;28;20058;-84
2022/03/15 13:44:48;;;;;;;10.95;4.60;;;;;;;;;;5014231;28;20128;-84
2022/03/15 13:47:16;;;;;;;12.73;4.60;;;;;;;;;;5015485;28;20137;-83
2022/03/15 13:49:45;;;;;;;7.88;3.85;;;;;;;;;;5015601;28;20046;-84
2022/03/15 13:52:14;;;;;;;9.07;3.72;;;;;;;;;;5016019;28;20137;-85
2022/03/15 13:55:01;;;;;;;10.07;4.32;;;;;;;;;;5015173;28;20535;-83
2022/03/15 13:57:31;;;;;;;9.98;4.20;;;;;;;;;;5032522;28;20046;-82
2022/03/15 14:00:00;;;;;;;9.02;4.10;;;;;;;;;;5031719;28;20056;-81
2022/03/15 14:02:31;;;;;;;10.40;4.30;;;;;;;;;;5015263;28;20105;-82
2022/03/15 14:05:00;;;;;;;11.55;4.57;;;;;;;;;;4997039;28;20054;-83
2022/03/15 14:07:27;;;;;;;12.23;4.35;;;;;;;;;;4996535;28;20054;-83
2022/03/15 14:09:57;;;;;;;9.90;4.22;;;;;;;;;;5023940;28;20046;-83
2022/03/15 14:12:29;;;;;;;7.93;4.93;;;;;;;;;;5017641;28;20139;-83
2022/03/15 14:14:55;;;;;;;11.13;4.43;;;;;;;;;;5015975;28;20053;-82
2022/03/15 14:17:23;;;;;;;12.00;5.50;;;;;;;;;;5013775;28;20046;-83
2022/03/15 14:19:50;;;;;;;9.82;5.07;;;;;;;;;;5013919;28;20437;-83
2022/03/15 14:22:22;;;;;;;9.25;4.75;;;;;;;;;;5031487;28;20057;-82
2022/03/15 14:24:56;;;;;;;10.27;4.93;;;;;;;;;;5018480;28;20128;-83
2022/03/15 14:27:23;;;;;;;10.25;4.68;;;;;;;;;;5031975;28;20058;-83
2022/03/15 14:29:54;;;;;;;10.55;4.40;;;;;;;;;;5037361;28;20973;-83
2022/03/15 14:32:21;;;;;;;11.05;4.70;;;;;;;;;;5033281;28;20054;-82